sensor_id;sensor_type;location;lat;lon;timestamp;temperature;humidity
41720;DHT22;27405;53.316;-6.294;2023-05-10T00:00:13;12.50;99.90
41720;DHT22;27405;53.316;-6.294;2023-05-10T00:02:39;12.50;99.90
41720;DHT22;27405;53.316;-6.294;2023-05-10T00:05:06;12.50;99.90
41720;DHT22;27405;53.316;-6.294;2023-05-10T00:07:32;12.50;99.90
41720;DHT22;27405;53.316;-6.294;2023-05-10T00:09:58;12.50;99.90
41720;DHT22;27405;53.316;-6.294;2023-05-10T00:12:23;12.50;99.90
41720;DHT22;27405;53.316;-6.294;2023-05-10T00:14:49;12.50;99.90
41720;DHT22;27405;53.316;-6.294;2023-05-10T00:17:15;12.60;99.90
41720;DHT22;27405;53.316;-6.294;2023-05-10T00:19:40;12.60;99.90
41720;DHT22;27405;53.316;-6.294;2023-05-10T00:22:06;12.70;99.90
41720;DHT22;27405;53.316;-6.294;2023-05-10T00:24:32;12.70;99.90
41720;DHT22;27405;53.316;-6.294;2023-05-10T00:26:57;12.70;99.90
41720;DHT22;27405;53.316;-6.294;2023-05-10T00:29:23;12.80;99.90
41720;DHT22;27405;53.316;-6.294;2023-05-10T00:31:49;12.80;99.90
41720;DHT22;27405;53.316;-6.294;2023-05-10T00:34:15;12.80;99.90
41720;DHT22;27405;53.316;-6.294;2023-05-10T00:36:40;12.70;99.90
41720;DHT22;27405;53.316;-6.294;2023-05-10T00:39:06;12.70;99.90
41720;DHT22;27405;53.316;-6.294;2023-05-10T00:41:33;12.60;99.90
41720;DHT22;27405;53.316;-6.294;2023-05-10T00:43:59;12.60;99.90
41720;DHT22;27405;53.316;-6.294;2023-05-10T00:46:25;12.60;99.90
41720;DHT22;27405;53.316;-6.294;2023-05-10T00:48:51;12.60;99.90
41720;DHT22;27405;53.316;-6.294;2023-05-10T00:51:17;12.70;99.90
41720;DHT22;27405;53.316;-6.294;2023-05-10T00:53:45;12.70;99.90
41720;DHT22;27405;53.316;-6.294;2023-05-10T00:56:11;12.70;99.90
41720;DHT22;27405;53.316;-6.294;2023-05-10T00:58:38;12.60;99.90
41720;DHT22;27405;53.316;-6.294;2023-05-10T01:01:04;12.60;99.90
41720;DHT22;27405;53.316;-6.294;2023-05-10T01:03:32;12.60;99.90
41720;DHT22;27405;53.316;-6.294;2023-05-10T01:05:58;12.60;99.90
41720;DHT22;27405;53.316;-6.294;2023-05-10T01:08:24;12.60;99.90
41720;DHT22;27405;53.316;-6.294;2023-05-10T01:10:50;12.60;99.90
41720;DHT22;27405;53.316;-6.294;2023-05-10T01:13:53;12.70;99.90
41720;DHT22;27405;53.316;-6.294;2023-05-10T01:16:09;12.60;99.90
41720;DHT22;27405;53.316;-6.294;2023-05-10T01:18:39;12.60;99.90
41720;DHT22;27405;53.316;-6.294;2023-05-10T01:37:46;12.50;99.90
41720;DHT22;27405;53.316;-6.294;2023-05-10T01:42:51;12.40;99.90
41720;DHT22;27405;53.316;-6.294;2023-05-10T01:45:32;12.50;99.90
41720;DHT22;27405;53.316;-6.294;2023-05-10T01:48:08;12.50;99.90
41720;DHT22;27405;53.316;-6.294;2023-05-10T01:50:37;12.50;99.90
41720;DHT22;27405;53.316;-6.294;2023-05-10T01:53:06;12.50;99.90
41720;DHT22;27405;53.316;-6.294;2023-05-10T01:55:36;12.50;99.90
41720;DHT22;27405;53.316;-6.294;2023-05-10T01:58:13;12.60;99.90
41720;DHT22;27405;53.316;-6.294;2023-05-10T02:00:44;12.60;99.90
41720;DHT22;27405;53.316;-6.294;2023-05-10T02:03:11;12.60;99.90
41720;DHT22;27405;53.316;-6.294;2023-05-10T02:05:38;12.60;99.90
41720;DHT22;27405;53.316;-6.294;2023-05-10T02:08:08;12.50;99.90
41720;DHT22;27405;53.316;-6.294;2023-05-10T02:10:35;12.50;99.90
41720;DHT22;27405;53.316;-6.294;2023-05-10T02:13:02;12.50;99.90
41720;DHT22;27405;53.316;-6.294;2023-05-10T02:15:28;12.50;99.90
41720;DHT22;27405;53.316;-6.294;2023-05-10T02:17:56;12.50;99.90
41720;DHT22;27405;53.316;-6.294;2023-05-10T02:20:24;12.50;99.90
41720;DHT22;27405;53.316;-6.294;2023-05-10T02:22:52;12.50;99.90
41720;DHT22;27405;53.316;-6.294;2023-05-10T02:25:19;12.50;99.90
41720;DHT22;27405;53.316;-6.294;2023-05-10T02:27:46;12.50;99.90
41720;DHT22;27405;53.316;-6.294;2023-05-10T02:30:13;12.50;99.90
41720;DHT22;27405;53.316;-6.294;2023-05-10T02:32:40;12.50;99.90
41720;DHT22;27405;53.316;-6.294;2023-05-10T02:35:07;12.50;99.90
41720;DHT22;27405;53.316;-6.294;2023-05-10T02:37:35;12.50;99.90
41720;DHT22;27405;53.316;-6.294;2023-05-10T02:40:02;12.50;99.90
41720;DHT22;27405;53.316;-6.294;2023-05-10T02:42:31;12.50;99.90
41720;DHT22;27405;53.316;-6.294;2023-05-10T02:45:00;12.50;99.90
41720;DHT22;27405;53.316;-6.294;2023-05-10T02:47:27;12.50;99.90
41720;DHT22;27405;53.316;-6.294;2023-05-10T02:49:53;12.50;99.90
41720;DHT22;27405;53.316;-6.294;2023-05-10T02:52:25;12.40;99.90
41720;DHT22;27405;53.316;-6.294;2023-05-10T02:54:55;12.50;99.90
41720;DHT22;27405;53.316;-6.294;2023-05-10T02:57:43;12.50;99.90
41720;DHT22;27405;53.316;-6.294;2023-05-10T03:00:11;12.50;99.90
41720;DHT22;27405;53.316;-6.294;2023-05-10T03:02:37;12.50;99.90
41720;DHT22;27405;53.316;-6.294;2023-05-10T03:05:03;12.50;99.90
41720;DHT22;27405;53.316;-6.294;2023-05-10T03:07:29;12.50;99.90
41720;DHT22;27405;53.316;-6.294;2023-05-10T03:09:55;12.50;99.90
41720;DHT22;27405;53.316;-6.294;2023-05-10T03:15:14;12.40;99.90
41720;DHT22;27405;53.316;-6.294;2023-05-10T03:17:55;12.40;99.90
41720;DHT22;27405;53.316;-6.294;2023-05-10T03:20:25;12.40;99.90
41720;DHT22;27405;53.316;-6.294;2023-05-10T03:22:55;12.40;99.90
41720;DHT22;27405;53.316;-6.294;2023-05-10T03:25:21;12.40;99.90
41720;DHT22;27405;53.316;-6.294;2023-05-10T03:27:48;12.40;99.90
41720;DHT22;27405;53.316;-6.294;2023-05-10T03:30:14;12.40;99.90
41720;DHT22;27405;53.316;-6.294;2023-05-10T03:32:41;12.40;99.90
41720;DHT22;27405;53.316;-6.294;2023-05-10T03:35:11;12.40;99.90
41720;DHT22;27405;53.316;-6.294;2023-05-10T03:37:37;12.40;99.90
41720;DHT22;27405;53.316;-6.294;2023-05-10T03:40:04;12.40;99.90
41720;DHT22;27405;53.316;-6.294;2023-05-10T03:42:30;12.40;99.90
41720;DHT22;27405;53.316;-6.294;2023-05-10T03:44:56;12.40;99.90
41720;DHT22;27405;53.316;-6.294;2023-05-10T03:47:21;12.30;99.90
41720;DHT22;27405;53.316;-6.294;2023-05-10T03:49:47;12.30;99.90
41720;DHT22;27405;53.316;-6.294;2023-05-10T03:52:13;12.30;99.90
41720;DHT22;27405;53.316;-6.294;2023-05-10T03:54:38;12.30;99.90
41720;DHT22;27405;53.316;-6.294;2023-05-10T03:57:04;12.30;99.90
41720;DHT22;27405;53.316;-6.294;2023-05-10T03:59:30;12.20;99.90
41720;DHT22;27405;53.316;-6.294;2023-05-10T04:01:56;12.30;99.90
41720;DHT22;27405;53.316;-6.294;2023-05-10T04:04:22;12.30;99.90
41720;DHT22;27405;53.316;-6.294;2023-05-10T04:06:48;12.30;99.90
41720;DHT22;27405;53.316;-6.294;2023-05-10T04:09:14;12.30;99.90
41720;DHT22;27405;53.316;-6.294;2023-05-10T04:11:40;12.30;99.90
41720;DHT22;27405;53.316;-6.294;2023-05-10T04:14:06;12.30;99.90
41720;DHT22;27405;53.316;-6.294;2023-05-10T04:16:31;12.30;99.90
41720;DHT22;27405;53.316;-6.294;2023-05-10T04:18:57;12.20;99.90
41720;DHT22;27405;53.316;-6.294;2023-05-10T04:21:23;12.20;99.90
41720;DHT22;27405;53.316;-6.294;2023-05-10T04:23:48;12.20;99.90
41720;DHT22;27405;53.316;-6.294;2023-05-10T04:26:14;12.20;99.90
41720;DHT22;27405;53.316;-6.294;2023-05-10T04:28:40;12.20;99.90
41720;DHT22;27405;53.316;-6.294;2023-05-10T04:31:07;12.10;99.90
41720;DHT22;27405;53.316;-6.294;2023-05-10T04:33:33;12.10;99.90
41720;DHT22;27405;53.316;-6.294;2023-05-10T04:36:00;12.10;99.90
41720;DHT22;27405;53.316;-6.294;2023-05-10T04:38:27;12.00;99.90
41720;DHT22;27405;53.316;-6.294;2023-05-10T04:40:53;12.10;99.90
41720;DHT22;27405;53.316;-6.294;2023-05-10T04:43:19;12.10;99.90
41720;DHT22;27405;53.316;-6.294;2023-05-10T04:45:45;12.10;99.90
41720;DHT22;27405;53.316;-6.294;2023-05-10T04:48:11;12.00;99.90
41720;DHT22;27405;53.316;-6.294;2023-05-10T04:50:36;12.00;99.90
41720;DHT22;27405;53.316;-6.294;2023-05-10T04:53:02;12.00;99.90
41720;DHT22;27405;53.316;-6.294;2023-05-10T04:55:28;12.00;99.90
41720;DHT22;27405;53.316;-6.294;2023-05-10T04:57:53;12.00;99.90
41720;DHT22;27405;53.316;-6.294;2023-05-10T05:00:22;12.00;99.90
41720;DHT22;27405;53.316;-6.294;2023-05-10T05:02:48;12.00;99.90
41720;DHT22;27405;53.316;-6.294;2023-05-10T05:05:14;12.00;99.90
41720;DHT22;27405;53.316;-6.294;2023-05-10T05:07:39;12.10;99.90
41720;DHT22;27405;53.316;-6.294;2023-05-10T05:10:08;12.10;99.90
41720;DHT22;27405;53.316;-6.294;2023-05-10T05:12:34;12.10;99.90
41720;DHT22;27405;53.316;-6.294;2023-05-10T05:15:01;12.20;99.90
41720;DHT22;27405;53.316;-6.294;2023-05-10T05:17:27;12.20;99.90
41720;DHT22;27405;53.316;-6.294;2023-05-10T05:19:52;12.20;99.90
41720;DHT22;27405;53.316;-6.294;2023-05-10T05:22:18;12.20;99.90
41720;DHT22;27405;53.316;-6.294;2023-05-10T05:24:56;12.20;99.90
41720;DHT22;27405;53.316;-6.294;2023-05-10T05:27:22;12.30;99.90
41720;DHT22;27405;53.316;-6.294;2023-05-10T05:29:53;12.20;99.90
41720;DHT22;27405;53.316;-6.294;2023-05-10T05:32:19;12.20;99.90
41720;DHT22;27405;53.316;-6.294;2023-05-10T05:34:45;12.30;99.90
41720;DHT22;27405;53.316;-6.294;2023-05-10T05:37:15;12.30;99.90
41720;DHT22;27405;53.316;-6.294;2023-05-10T05:39:41;12.30;99.90
41720;DHT22;27405;53.316;-6.294;2023-05-10T05:42:11;12.30;99.90
41720;DHT22;27405;53.316;-6.294;2023-05-10T05:44:37;12.30;99.90
41720;DHT22;27405;53.316;-6.294;2023-05-10T05:47:03;12.30;99.90
41720;DHT22;27405;53.316;-6.294;2023-05-10T05:49:29;12.30;99.90
41720;DHT22;27405;53.316;-6.294;2023-05-10T05:51:58;12.30;99.90
41720;DHT22;27405;53.316;-6.294;2023-05-10T05:54:23;12.30;99.90
41720;DHT22;27405;53.316;-6.294;2023-05-10T05:56:49;12.30;99.90
41720;DHT22;27405;53.316;-6.294;2023-05-10T05:59:14;12.20;99.90
41720;DHT22;27405;53.316;-6.294;2023-05-10T06:01:40;12.20;99.90
41720;DHT22;27405;53.316;-6.294;2023-05-10T06:04:06;12.20;99.90
41720;DHT22;27405;53.316;-6.294;2023-05-10T06:06:31;12.30;99.90
41720;DHT22;27405;53.316;-6.294;2023-05-10T06:08:57;12.40;99.90
41720;DHT22;27405;53.316;-6.294;2023-05-10T06:11:23;12.40;99.90
41720;DHT22;27405;53.316;-6.294;2023-05-10T06:13:49;12.50;99.90
41720;DHT22;27405;53.316;-6.294;2023-05-10T06:16:14;12.50;99.90
41720;DHT22;27405;53.316;-6.294;2023-05-10T06:18:40;12.60;99.90
41720;DHT22;27405;53.316;-6.294;2023-05-10T06:21:06;12.60;99.90
41720;DHT22;27405;53.316;-6.294;2023-05-10T06:23:32;12.60;99.90
41720;DHT22;27405;53.316;-6.294;2023-05-10T06:25:58;12.70;99.90
41720;DHT22;27405;53.316;-6.294;2023-05-10T06:28:23;12.70;99.90
41720;DHT22;27405;53.316;-6.294;2023-05-10T06:30:49;12.80;99.90
41720;DHT22;27405;53.316;-6.294;2023-05-10T06:33:14;12.80;99.90
41720;DHT22;27405;53.316;-6.294;2023-05-10T06:35:41;12.80;99.90
41720;DHT22;27405;53.316;-6.294;2023-05-10T06:38:07;12.90;99.90
41720;DHT22;27405;53.316;-6.294;2023-05-10T06:40:32;12.90;99.90
41720;DHT22;27405;53.316;-6.294;2023-05-10T06:42:58;12.90;99.90
41720;DHT22;27405;53.316;-6.294;2023-05-10T06:45:24;12.90;99.90
41720;DHT22;27405;53.316;-6.294;2023-05-10T06:47:49;13.00;99.90
41720;DHT22;27405;53.316;-6.294;2023-05-10T06:50:15;12.90;99.90
41720;DHT22;27405;53.316;-6.294;2023-05-10T06:52:41;13.00;99.90
41720;DHT22;27405;53.316;-6.294;2023-05-10T06:55:07;12.90;99.90
41720;DHT22;27405;53.316;-6.294;2023-05-10T06:57:34;12.90;99.90
41720;DHT22;27405;53.316;-6.294;2023-05-10T06:59:59;12.80;99.90
41720;DHT22;27405;53.316;-6.294;2023-05-10T07:02:25;12.80;99.90
41720;DHT22;27405;53.316;-6.294;2023-05-10T07:04:51;12.80;99.90
41720;DHT22;27405;53.316;-6.294;2023-05-10T07:07:18;12.80;99.90
41720;DHT22;27405;53.316;-6.294;2023-05-10T07:09:43;12.80;99.90
41720;DHT22;27405;53.316;-6.294;2023-05-10T07:12:09;12.90;99.90
41720;DHT22;27405;53.316;-6.294;2023-05-10T07:14:35;12.90;99.90
41720;DHT22;27405;53.316;-6.294;2023-05-10T07:17:00;12.90;99.90
41720;DHT22;27405;53.316;-6.294;2023-05-10T07:19:26;13.00;99.90
41720;DHT22;27405;53.316;-6.294;2023-05-10T07:21:52;13.00;99.90
41720;DHT22;27405;53.316;-6.294;2023-05-10T07:24:18;13.10;99.90
41720;DHT22;27405;53.316;-6.294;2023-05-10T07:26:43;13.10;99.90
41720;DHT22;27405;53.316;-6.294;2023-05-10T07:29:09;13.20;99.90
41720;DHT22;27405;53.316;-6.294;2023-05-10T07:31:35;13.20;99.90
41720;DHT22;27405;53.316;-6.294;2023-05-10T07:34:01;13.30;99.90
41720;DHT22;27405;53.316;-6.294;2023-05-10T07:36:26;13.40;99.90
41720;DHT22;27405;53.316;-6.294;2023-05-10T07:38:53;13.50;99.90
41720;DHT22;27405;53.316;-6.294;2023-05-10T07:41:18;13.70;99.90
41720;DHT22;27405;53.316;-6.294;2023-05-10T07:43:44;13.80;99.90
41720;DHT22;27405;53.316;-6.294;2023-05-10T07:46:09;13.90;99.90
41720;DHT22;27405;53.316;-6.294;2023-05-10T07:48:37;14.00;99.90
41720;DHT22;27405;53.316;-6.294;2023-05-10T07:51:02;14.00;99.90
41720;DHT22;27405;53.316;-6.294;2023-05-10T07:53:28;14.00;99.90
41720;DHT22;27405;53.316;-6.294;2023-05-10T07:55:57;14.00;99.90
41720;DHT22;27405;53.316;-6.294;2023-05-10T07:58:26;13.80;99.90
41720;DHT22;27405;53.316;-6.294;2023-05-10T08:00:52;13.90;99.90
41720;DHT22;27405;53.316;-6.294;2023-05-10T08:03:18;13.90;99.90
41720;DHT22;27405;53.316;-6.294;2023-05-10T08:05:43;14.00;99.90
41720;DHT22;27405;53.316;-6.294;2023-05-10T08:08:09;14.00;99.90
41720;DHT22;27405;53.316;-6.294;2023-05-10T08:10:34;14.10;99.90
41720;DHT22;27405;53.316;-6.294;2023-05-10T08:13:00;14.10;99.90
41720;DHT22;27405;53.316;-6.294;2023-05-10T08:15:26;14.20;99.90
41720;DHT22;27405;53.316;-6.294;2023-05-10T08:17:52;14.20;99.90
41720;DHT22;27405;53.316;-6.294;2023-05-10T08:20:18;14.30;99.90
41720;DHT22;27405;53.316;-6.294;2023-05-10T08:22:45;14.30;99.90
41720;DHT22;27405;53.316;-6.294;2023-05-10T08:25:11;14.30;99.90
41720;DHT22;27405;53.316;-6.294;2023-05-10T08:27:37;14.50;99.90
41720;DHT22;27405;53.316;-6.294;2023-05-10T08:30:03;14.60;99.90
41720;DHT22;27405;53.316;-6.294;2023-05-10T08:32:29;14.60;99.90
41720;DHT22;27405;53.316;-6.294;2023-05-10T08:34:55;14.60;99.90
41720;DHT22;27405;53.316;-6.294;2023-05-10T08:37:22;14.70;99.90
41720;DHT22;27405;53.316;-6.294;2023-05-10T08:39:48;14.70;99.90
41720;DHT22;27405;53.316;-6.294;2023-05-10T08:42:18;14.70;99.90
41720;DHT22;27405;53.316;-6.294;2023-05-10T08:44:45;14.70;99.90
41720;DHT22;27405;53.316;-6.294;2023-05-10T08:47:15;14.60;99.90
41720;DHT22;27405;53.316;-6.294;2023-05-10T08:49:41;14.70;99.90
41720;DHT22;27405;53.316;-6.294;2023-05-10T08:52:10;14.60;99.90
41720;DHT22;27405;53.316;-6.294;2023-05-10T08:54:38;14.60;99.90
41720;DHT22;27405;53.316;-6.294;2023-05-10T08:57:03;14.60;99.90
41720;DHT22;27405;53.316;-6.294;2023-05-10T08:59:29;14.60;99.90
41720;DHT22;27405;53.316;-6.294;2023-05-10T09:01:57;14.50;99.90
41720;DHT22;27405;53.316;-6.294;2023-05-10T09:04:24;14.50;99.90
41720;DHT22;27405;53.316;-6.294;2023-05-10T09:06:50;14.50;99.90
41720;DHT22;27405;53.316;-6.294;2023-05-10T09:09:17;14.40;99.90
41720;DHT22;27405;53.316;-6.294;2023-05-10T09:11:43;14.40;99.90
41720;DHT22;27405;53.316;-6.294;2023-05-10T09:14:10;14.40;99.90
41720;DHT22;27405;53.316;-6.294;2023-05-10T09:16:37;14.40;99.90
41720;DHT22;27405;53.316;-6.294;2023-05-10T09:19:03;14.50;99.90
41720;DHT22;27405;53.316;-6.294;2023-05-10T09:21:30;14.50;99.90
41720;DHT22;27405;53.316;-6.294;2023-05-10T09:23:56;14.60;99.90
41720;DHT22;27405;53.316;-6.294;2023-05-10T09:26:23;14.70;99.90
41720;DHT22;27405;53.316;-6.294;2023-05-10T09:28:57;14.90;99.90
41720;DHT22;27405;53.316;-6.294;2023-05-10T09:31:23;15.00;99.90
41720;DHT22;27405;53.316;-6.294;2023-05-10T09:33:50;15.00;99.90
41720;DHT22;27405;53.316;-6.294;2023-05-10T09:36:17;15.10;99.90
41720;DHT22;27405;53.316;-6.294;2023-05-10T09:38:51;15.20;99.90
41720;DHT22;27405;53.316;-6.294;2023-05-10T09:41:18;15.30;99.90
41720;DHT22;27405;53.316;-6.294;2023-05-10T09:43:45;15.30;99.90
41720;DHT22;27405;53.316;-6.294;2023-05-10T09:46:11;15.40;99.90
41720;DHT22;27405;53.316;-6.294;2023-05-10T09:48:42;15.40;99.90
41720;DHT22;27405;53.316;-6.294;2023-05-10T09:51:09;15.50;99.90
41720;DHT22;27405;53.316;-6.294;2023-05-10T09:53:34;15.60;99.90
41720;DHT22;27405;53.316;-6.294;2023-05-10T09:56:00;15.70;99.90
41720;DHT22;27405;53.316;-6.294;2023-05-10T09:58:26;15.90;99.90
41720;DHT22;27405;53.316;-6.294;2023-05-10T10:00:52;15.90;99.90
41720;DHT22;27405;53.316;-6.294;2023-05-10T10:03:20;15.80;99.90
41720;DHT22;27405;53.316;-6.294;2023-05-10T10:05:47;15.70;99.90
41720;DHT22;27405;53.316;-6.294;2023-05-10T10:08:14;15.60;99.90
41720;DHT22;27405;53.316;-6.294;2023-05-10T10:10:41;15.60;99.90
41720;DHT22;27405;53.316;-6.294;2023-05-10T10:13:07;15.50;99.90
41720;DHT22;27405;53.316;-6.294;2023-05-10T10:15:34;15.30;99.90
41720;DHT22;27405;53.316;-6.294;2023-05-10T10:18:00;15.10;99.90
41720;DHT22;27405;53.316;-6.294;2023-05-10T10:20:27;15.00;99.90
41720;DHT22;27405;53.316;-6.294;2023-05-10T10:22:53;14.90;99.90
41720;DHT22;27405;53.316;-6.294;2023-05-10T10:25:20;14.70;99.90
41720;DHT22;27405;53.316;-6.294;2023-05-10T10:28:01;14.70;99.90
41720;DHT22;27405;53.316;-6.294;2023-05-10T10:35:32;14.80;99.90
41720;DHT22;27405;53.316;-6.294;2023-05-10T10:37:58;14.90;99.90
41720;DHT22;27405;53.316;-6.294;2023-05-10T10:40:26;15.10;99.90
41720;DHT22;27405;53.316;-6.294;2023-05-10T10:42:52;15.20;99.90
41720;DHT22;27405;53.316;-6.294;2023-05-10T10:45:19;15.20;99.90
41720;DHT22;27405;53.316;-6.294;2023-05-10T10:47:45;15.30;99.90
41720;DHT22;27405;53.316;-6.294;2023-05-10T10:50:11;15.40;99.90
41720;DHT22;27405;53.316;-6.294;2023-05-10T10:52:45;15.50;99.90
41720;DHT22;27405;53.316;-6.294;2023-05-10T10:55:20;15.50;99.90
41720;DHT22;27405;53.316;-6.294;2023-05-10T10:57:51;15.60;99.90
41720;DHT22;27405;53.316;-6.294;2023-05-10T11:02:52;15.70;99.90
41720;DHT22;27405;53.316;-6.294;2023-05-10T11:08:27;15.50;99.90
41720;DHT22;27405;53.316;-6.294;2023-05-10T11:15:56;15.40;99.90
41720;DHT22;27405;53.316;-6.294;2023-05-10T11:18:29;15.40;99.90
41720;DHT22;27405;53.316;-6.294;2023-05-10T11:23:28;15.50;99.90
41720;DHT22;27405;53.316;-6.294;2023-05-10T11:25:55;15.60;99.90
41720;DHT22;27405;53.316;-6.294;2023-05-10T11:28:20;15.70;99.90
41720;DHT22;27405;53.316;-6.294;2023-05-10T11:30:47;15.70;99.90
41720;DHT22;27405;53.316;-6.294;2023-05-10T11:33:17;15.70;99.90
41720;DHT22;27405;53.316;-6.294;2023-05-10T11:35:43;15.80;99.90
41720;DHT22;27405;53.316;-6.294;2023-05-10T11:38:09;15.80;99.90
41720;DHT22;27405;53.316;-6.294;2023-05-10T11:40:36;15.90;99.90
41720;DHT22;27405;53.316;-6.294;2023-05-10T11:43:02;15.90;99.90
41720;DHT22;27405;53.316;-6.294;2023-05-10T11:45:29;16.00;99.90
41720;DHT22;27405;53.316;-6.294;2023-05-10T11:47:57;16.10;99.90
41720;DHT22;27405;53.316;-6.294;2023-05-10T11:50:23;16.20;99.90
41720;DHT22;27405;53.316;-6.294;2023-05-10T11:52:53;16.30;99.90
41720;DHT22;27405;53.316;-6.294;2023-05-10T11:55:19;16.40;99.90
41720;DHT22;27405;53.316;-6.294;2023-05-10T11:57:44;16.40;99.90
41720;DHT22;27405;53.316;-6.294;2023-05-10T12:00:12;16.30;99.90
41720;DHT22;27405;53.316;-6.294;2023-05-10T12:02:38;16.30;99.90
41720;DHT22;27405;53.316;-6.294;2023-05-10T12:05:04;16.20;99.90
41720;DHT22;27405;53.316;-6.294;2023-05-10T12:07:31;16.20;99.90
41720;DHT22;27405;53.316;-6.294;2023-05-10T12:10:06;16.20;99.90
41720;DHT22;27405;53.316;-6.294;2023-05-10T12:12:43;16.30;99.90
41720;DHT22;27405;53.316;-6.294;2023-05-10T12:17:38;16.80;99.90
41720;DHT22;27405;53.316;-6.294;2023-05-10T12:20:27;17.00;99.90
41720;DHT22;27405;53.316;-6.294;2023-05-10T12:22:57;17.20;99.90
41720;DHT22;27405;53.316;-6.294;2023-05-10T12:25:29;17.20;99.90
41720;DHT22;27405;53.316;-6.294;2023-05-10T12:27:57;16.90;99.90
41720;DHT22;27405;53.316;-6.294;2023-05-10T12:30:24;16.70;99.90
41720;DHT22;27405;53.316;-6.294;2023-05-10T12:32:50;16.50;99.90
41720;DHT22;27405;53.316;-6.294;2023-05-10T12:35:17;16.40;99.90
41720;DHT22;27405;53.316;-6.294;2023-05-10T12:37:46;16.30;99.90
41720;DHT22;27405;53.316;-6.294;2023-05-10T12:40:12;16.10;99.90
41720;DHT22;27405;53.316;-6.294;2023-05-10T12:42:38;16.10;99.90
41720;DHT22;27405;53.316;-6.294;2023-05-10T12:45:05;16.00;99.90
41720;DHT22;27405;53.316;-6.294;2023-05-10T12:47:32;15.90;99.90
41720;DHT22;27405;53.316;-6.294;2023-05-10T12:49:59;15.90;99.90
41720;DHT22;27405;53.316;-6.294;2023-05-10T12:52:25;15.80;99.90
41720;DHT22;27405;53.316;-6.294;2023-05-10T12:54:52;15.70;99.90
41720;DHT22;27405;53.316;-6.294;2023-05-10T12:57:19;15.60;99.90
41720;DHT22;27405;53.316;-6.294;2023-05-10T12:59:45;15.70;99.90
41720;DHT22;27405;53.316;-6.294;2023-05-10T13:02:11;15.70;99.90
41720;DHT22;27405;53.316;-6.294;2023-05-10T13:04:36;15.80;99.90
41720;DHT22;27405;53.316;-6.294;2023-05-10T13:07:09;15.80;99.90
41720;DHT22;27405;53.316;-6.294;2023-05-10T13:09:35;15.80;99.90
41720;DHT22;27405;53.316;-6.294;2023-05-10T13:12:01;15.90;99.90
41720;DHT22;27405;53.316;-6.294;2023-05-10T13:14:27;16.10;99.90
41720;DHT22;27405;53.316;-6.294;2023-05-10T13:16:53;16.20;99.90
41720;DHT22;27405;53.316;-6.294;2023-05-10T13:19:19;16.40;99.90
41720;DHT22;27405;53.316;-6.294;2023-05-10T13:21:46;16.40;99.90
41720;DHT22;27405;53.316;-6.294;2023-05-10T13:24:12;16.50;99.90
41720;DHT22;27405;53.316;-6.294;2023-05-10T13:26:43;16.60;99.90
41720;DHT22;27405;53.316;-6.294;2023-05-10T13:29:09;16.70;99.90
41720;DHT22;27405;53.316;-6.294;2023-05-10T13:31:35;16.90;99.90
41720;DHT22;27405;53.316;-6.294;2023-05-10T13:34:02;17.00;99.90
41720;DHT22;27405;53.316;-6.294;2023-05-10T13:36:28;17.20;99.90
41720;DHT22;27405;53.316;-6.294;2023-05-10T13:38:53;17.30;99.90
41720;DHT22;27405;53.316;-6.294;2023-05-10T13:41:19;17.30;99.90
41720;DHT22;27405;53.316;-6.294;2023-05-10T13:43:45;17.40;99.90
41720;DHT22;27405;53.316;-6.294;2023-05-10T13:46:10;17.50;99.90
41720;DHT22;27405;53.316;-6.294;2023-05-10T13:48:36;17.70;99.90
41720;DHT22;27405;53.316;-6.294;2023-05-10T13:51:04;17.80;99.90
41720;DHT22;27405;53.316;-6.294;2023-05-10T13:53:30;17.80;99.90
41720;DHT22;27405;53.316;-6.294;2023-05-10T13:55:56;17.90;99.80
41720;DHT22;27405;53.316;-6.294;2023-05-10T13:58:22;17.90;99.20
41720;DHT22;27405;53.316;-6.294;2023-05-10T14:00:48;17.80;98.70
41720;DHT22;27405;53.316;-6.294;2023-05-10T14:03:14;17.70;98.50
41720;DHT22;27405;53.316;-6.294;2023-05-10T14:05:40;17.60;98.70
41720;DHT22;27405;53.316;-6.294;2023-05-10T14:08:05;17.50;98.70
41720;DHT22;27405;53.316;-6.294;2023-05-10T14:10:31;17.30;99.20
41720;DHT22;27405;53.316;-6.294;2023-05-10T14:12:57;17.10;99.90
41720;DHT22;27405;53.316;-6.294;2023-05-10T14:15:23;16.90;99.90
41720;DHT22;27405;53.316;-6.294;2023-05-10T14:17:48;16.90;99.90
41720;DHT22;27405;53.316;-6.294;2023-05-10T14:20:14;16.80;99.90
41720;DHT22;27405;53.316;-6.294;2023-05-10T14:22:40;16.80;99.90
41720;DHT22;27405;53.316;-6.294;2023-05-10T14:25:06;16.70;99.90
41720;DHT22;27405;53.316;-6.294;2023-05-10T14:27:32;16.80;99.90
41720;DHT22;27405;53.316;-6.294;2023-05-10T14:29:57;17.00;99.90
41720;DHT22;27405;53.316;-6.294;2023-05-10T14:32:23;17.20;99.90
41720;DHT22;27405;53.316;-6.294;2023-05-10T14:34:49;17.40;99.90
41720;DHT22;27405;53.316;-6.294;2023-05-10T14:37:15;17.60;99.90
41720;DHT22;27405;53.316;-6.294;2023-05-10T14:39:41;17.90;99.80
41720;DHT22;27405;53.316;-6.294;2023-05-10T14:42:08;18.30;99.30
41720;DHT22;27405;53.316;-6.294;2023-05-10T14:44:34;18.90;98.60
41720;DHT22;27405;53.316;-6.294;2023-05-10T14:46:59;19.30;97.60
41720;DHT22;27405;53.316;-6.294;2023-05-10T14:49:25;19.70;96.80
41720;DHT22;27405;53.316;-6.294;2023-05-10T14:51:51;19.90;96.30
41720;DHT22;27405;53.316;-6.294;2023-05-10T14:54:17;20.40;95.80
41720;DHT22;27405;53.316;-6.294;2023-05-10T14:56:43;21.00;95.30
41720;DHT22;27405;53.316;-6.294;2023-05-10T14:59:09;21.50;94.70
41720;DHT22;27405;53.316;-6.294;2023-05-10T15:01:34;21.70;93.60
41720;DHT22;27405;53.316;-6.294;2023-05-10T15:04:03;21.60;93.00
41720;DHT22;27405;53.316;-6.294;2023-05-10T15:06:33;21.10;92.50
41720;DHT22;27405;53.316;-6.294;2023-05-10T15:09:00;20.90;92.80
41720;DHT22;27405;53.316;-6.294;2023-05-10T15:11:26;20.90;92.50
41720;DHT22;27405;53.316;-6.294;2023-05-10T15:13:52;20.60;92.20
41720;DHT22;27405;53.316;-6.294;2023-05-10T15:16:17;20.30;92.20
41720;DHT22;27405;53.316;-6.294;2023-05-10T15:18:43;20.00;92.50
41720;DHT22;27405;53.316;-6.294;2023-05-10T15:21:09;20.30;93.00
41720;DHT22;27405;53.316;-6.294;2023-05-10T15:23:35;20.90;93.20
41720;DHT22;27405;53.316;-6.294;2023-05-10T15:26:01;21.40;92.10
41720;DHT22;27405;53.316;-6.294;2023-05-10T15:28:28;21.10;91.20
41720;DHT22;27405;53.316;-6.294;2023-05-10T15:30:54;20.50;91.20
41720;DHT22;27405;53.316;-6.294;2023-05-10T15:33:20;20.00;91.70
41720;DHT22;27405;53.316;-6.294;2023-05-10T15:35:45;19.50;92.20
41720;DHT22;27405;53.316;-6.294;2023-05-10T15:38:11;19.00;92.80
41720;DHT22;27405;53.316;-6.294;2023-05-10T15:40:37;18.60;93.50
41720;DHT22;27405;53.316;-6.294;2023-05-10T15:43:03;18.40;94.30
41720;DHT22;27405;53.316;-6.294;2023-05-10T15:45:28;18.50;94.80
41720;DHT22;27405;53.316;-6.294;2023-05-10T15:47:54;18.60;94.40
41720;DHT22;27405;53.316;-6.294;2023-05-10T15:50:20;18.50;94.40
41720;DHT22;27405;53.316;-6.294;2023-05-10T15:52:46;18.30;94.60
41720;DHT22;27405;53.316;-6.294;2023-05-10T15:55:12;18.20;94.80